createdAt,value
2023-01-13T00:00:50.608Z,1.70
2023-01-13T00:03:17.111Z,1.52
2023-01-13T00:05:43.606Z,1.40
2023-01-13T00:08:10.124Z,1.50
2023-01-13T00:10:37.810Z,1.50
2023-01-13T00:13:05.478Z,1.70
2023-01-13T00:15:33.234Z,1.50
2023-01-13T00:17:59.693Z,1.70
2023-01-13T00:20:26.177Z,1.58
2023-01-13T00:22:52.676Z,1.63
2023-01-13T00:25:19.185Z,2.08
2023-01-13T00:27:45.712Z,1.50
2023-01-13T00:30:12.713Z,1.98
2023-01-13T00:32:39.301Z,1.40
2023-01-13T00:37:32.429Z,1.83
2023-01-13T00:39:58.992Z,1.80
2023-01-13T00:42:44.163Z,1.70
2023-01-13T00:45:10.936Z,1.52
2023-01-13T00:47:37.418Z,1.70
2023-01-13T00:50:04.095Z,1.60
2023-01-13T00:54:58.197Z,1.60
2023-01-13T00:57:24.713Z,1.70
2023-01-13T00:59:51.252Z,1.55
2023-01-13T01:02:17.926Z,1.40
2023-01-13T01:07:10.991Z,1.40
2023-01-13T01:09:39.560Z,1.70
2023-01-13T01:12:06.156Z,1.50
2023-01-13T01:14:33.717Z,1.70
2023-01-13T01:17:00.194Z,1.90
2023-01-13T01:19:26.689Z,2.70
2023-01-13T01:21:53.231Z,1.63
2023-01-13T01:24:19.743Z,1.55
2023-01-13T01:26:46.271Z,1.85
2023-01-13T01:29:15.631Z,1.65
2023-01-13T01:31:43.348Z,1.60
2023-01-13T01:34:10.042Z,1.70
2023-01-13T01:39:04.145Z,1.88
2023-01-13T01:41:32.955Z,1.67
2023-01-13T01:44:06.898Z,1.60
2023-01-13T01:46:35.763Z,1.50
2023-01-13T01:49:04.970Z,1.60
2023-01-13T01:51:36.832Z,1.60
2023-01-13T01:54:06.341Z,1.83
2023-01-13T01:56:33.972Z,1.40
2023-01-13T01:59:01.051Z,1.60
2023-01-13T02:01:28.461Z,1.60
2023-01-13T02:04:01.643Z,1.60
2023-01-13T02:06:30.483Z,1.60
2023-01-13T02:08:59.031Z,1.50
2023-01-13T02:11:50.214Z,1.67
2023-01-13T02:14:17.256Z,1.50
2023-01-13T02:16:54.629Z,1.50
2023-01-13T02:19:58.459Z,1.55
2023-01-13T02:22:55.984Z,1.50
2023-01-13T02:25:34.685Z,1.60
2023-01-13T02:28:16.419Z,1.70
2023-01-13T02:31:07.960Z,1.50
2023-01-13T02:33:50.296Z,1.55
2023-01-13T02:36:30.327Z,1.60
2023-01-13T02:39:01.011Z,1.58
2023-01-13T02:41:48.626Z,1.83
2023-01-13T02:44:20.360Z,1.60
2023-01-13T02:46:53.916Z,1.52
2023-01-13T02:49:44.344Z,1.50
2023-01-13T02:52:16.674Z,1.60
2023-01-13T02:54:47.908Z,1.60
2023-01-13T02:57:17.562Z,1.70
2023-01-13T02:59:44.349Z,1.50
2023-01-13T03:02:16.543Z,1.50
2023-01-13T03:04:49.983Z,1.63
2023-01-13T03:07:40.029Z,2.00
2023-01-13T03:10:25.038Z,1.77
2023-01-13T03:13:40.128Z,1.77
2023-01-13T03:16:15.572Z,1.88
2023-01-13T03:18:44.942Z,1.67
2023-01-13T03:21:35.211Z,2.03
2023-01-13T03:24:20.114Z,2.40
2023-01-13T03:26:51.816Z,2.55
2023-01-13T03:29:24.464Z,3.08
2023-01-13T03:31:59.368Z,2.38
2023-01-13T03:34:33.816Z,2.80
2023-01-13T03:37:04.452Z,2.42
2023-01-13T03:39:35.383Z,2.03
2023-01-13T03:42:07.588Z,2.10
2023-01-13T03:44:40.211Z,2.38
2023-01-13T03:47:18.684Z,2.17
2023-01-13T03:49:53.463Z,3.28
2023-01-13T03:52:31.055Z,1.90
2023-01-13T03:55:07.719Z,2.00
2023-01-13T03:57:40.218Z,2.05
2023-01-13T04:00:11.119Z,2.08
2023-01-13T04:02:56.182Z,2.03
2023-01-13T04:05:23.075Z,2.22
2023-01-13T04:07:52.939Z,1.90
2023-01-13T04:10:45.608Z,2.20
2023-01-13T04:13:16.498Z,1.88
2023-01-13T04:15:45.390Z,2.00
2023-01-13T04:18:24.620Z,1.92
2023-01-13T04:20:53.479Z,3.03
2023-01-13T04:23:21.750Z,2.28
2023-01-13T04:25:49.323Z,2.70
2023-01-13T04:28:16.740Z,2.70
2023-01-13T04:30:44.119Z,2.95
2023-01-13T04:33:11.506Z,2.25
2023-01-13T04:35:38.569Z,2.60
2023-01-13T04:38:11.190Z,3.00
2023-01-13T04:40:37.767Z,2.20
2023-01-13T04:43:04.538Z,2.55
2023-01-13T04:47:57.923Z,2.45
2023-01-13T04:50:24.561Z,2.95
2023-01-13T04:52:52.562Z,2.72
2023-01-13T04:55:20.624Z,2.38
2023-01-13T04:57:47.185Z,2.17
2023-01-13T05:00:15.884Z,2.70
2023-01-13T05:02:42.454Z,2.92
2023-01-13T05:05:09.447Z,3.00
2023-01-13T05:07:36.015Z,3.50
2023-01-13T05:10:02.743Z,4.03
2023-01-13T05:12:47.973Z,3.17
2023-01-13T05:15:34.084Z,2.53
2023-01-13T05:18:01.846Z,3.63
2023-01-13T05:20:28.444Z,2.90
2023-01-13T05:23:30.165Z,2.80
2023-01-13T05:25:56.636Z,2.50
2023-01-13T05:28:23.087Z,3.33
2023-01-13T05:30:49.801Z,2.42
2023-01-13T05:35:45.990Z,2.55
2023-01-13T05:38:14.012Z,3.55
2023-01-13T05:40:59.830Z,2.38
2023-01-13T05:43:27.471Z,2.70
2023-01-13T05:45:58.285Z,3.75
2023-01-13T05:48:27.763Z,3.15
2023-01-13T05:50:54.940Z,2.83
2023-01-13T05:53:22.235Z,2.53
2023-01-13T05:55:48.795Z,4.28
2023-01-13T05:58:17.140Z,2.47
2023-01-13T06:00:43.654Z,2.40
2023-01-13T06:03:10.987Z,2.30
2023-01-13T06:05:38.110Z,2.70
2023-01-13T06:08:06.773Z,2.90
2023-01-13T06:10:34.399Z,3.10
2023-01-13T06:13:01.222Z,2.70
2023-01-13T06:15:27.803Z,3.65
2023-01-13T06:17:54.756Z,3.10
2023-01-13T06:20:21.270Z,2.63
2023-01-13T06:22:49.932Z,2.50
2023-01-13T06:25:20.311Z,2.72
2023-01-13T06:27:46.853Z,3.55
2023-01-13T06:30:13.499Z,2.60
2023-01-13T06:35:13.497Z,2.80
2023-01-13T06:37:43.965Z,3.65
2023-01-13T06:40:13.816Z,2.88
2023-01-13T06:42:59.249Z,3.28
2023-01-13T06:45:27.490Z,3.53
2023-01-13T06:47:54.683Z,3.22
2023-01-13T06:50:21.158Z,3.05
2023-01-13T06:52:47.611Z,2.90
2023-01-13T06:55:14.203Z,3.40
2023-01-13T06:57:54.883Z,2.75
2023-01-13T07:00:23.063Z,2.80
2023-01-13T07:02:50.155Z,3.22
2023-01-13T07:05:18.392Z,3.35
2023-01-13T07:07:45.263Z,3.25
2023-01-13T07:10:14.407Z,3.20
2023-01-13T07:13:00.233Z,2.80
2023-01-13T07:15:27.138Z,4.78
2023-01-13T07:17:53.893Z,3.50
2023-01-13T07:22:46.778Z,3.25
2023-01-13T07:25:13.362Z,3.58
2023-01-13T07:27:39.843Z,3.00
2023-01-13T07:30:07.613Z,3.17
2023-01-13T07:32:34.165Z,3.53
2023-01-13T07:35:05.337Z,3.42
2023-01-13T07:37:37.491Z,4.20
2023-01-13T07:40:05.078Z,3.88
2023-01-13T07:42:50.026Z,3.40
2023-01-13T07:45:16.542Z,3.20
2023-01-13T07:47:42.994Z,4.03
2023-01-13T07:50:10.007Z,3.72
2023-01-13T07:52:36.449Z,2.78
2023-01-13T07:55:03.061Z,3.25
2023-01-13T07:57:29.489Z,2.72
2023-01-13T07:59:56.021Z,2.63
2023-01-13T08:02:22.808Z,3.10
2023-01-13T08:04:49.551Z,2.95
2023-01-13T08:07:16.074Z,2.70
2023-01-13T08:09:42.526Z,2.97
2023-01-13T08:12:27.472Z,2.97
2023-01-13T08:14:54.151Z,2.70
2023-01-13T08:19:47.529Z,2.95
2023-01-13T08:24:40.525Z,2.90
2023-01-13T08:27:07.070Z,3.40
2023-01-13T08:29:33.604Z,3.63
2023-01-13T08:32:00.149Z,3.35
2023-01-13T08:34:26.573Z,4.45
2023-01-13T08:36:53.069Z,2.85
2023-01-13T08:39:19.708Z,3.38
2023-01-13T08:44:24.028Z,3.60
2023-01-13T08:46:50.685Z,3.15
2023-01-13T08:51:44.543Z,2.90
2023-01-13T08:54:11.741Z,3.33
2023-01-13T08:56:39.251Z,3.05
2023-01-13T08:59:06.143Z,3.10
2023-01-13T09:01:34.094Z,3.15
2023-01-13T09:04:00.720Z,4.00
2023-01-13T09:06:27.262Z,2.80
2023-01-13T09:08:53.723Z,3.08
2023-01-13T09:11:44.790Z,3.05
2023-01-13T09:14:11.235Z,2.90
2023-01-13T09:16:37.676Z,3.00
2023-01-13T09:19:04.143Z,2.80
2023-01-13T09:21:30.617Z,2.97
2023-01-13T09:23:57.171Z,3.63
2023-01-13T09:26:23.604Z,2.75
2023-01-13T09:28:50.351Z,3.78
2023-01-13T09:34:01.984Z,3.30
2023-01-13T09:36:28.454Z,3.40
2023-01-13T09:38:54.895Z,4.38
2023-01-13T09:41:42.461Z,3.58
2023-01-13T09:44:22.529Z,3.50
2023-01-13T09:46:56.427Z,3.55
2023-01-13T09:49:29.075Z,3.10
2023-01-13T09:52:14.076Z,3.05
2023-01-13T09:54:55.789Z,3.33
2023-01-13T09:57:22.285Z,3.33
2023-01-13T09:59:48.820Z,3.33
2023-01-13T10:02:36.414Z,3.22
2023-01-13T10:05:22.706Z,3.33
2023-01-13T10:07:52.770Z,3.10
2023-01-13T10:10:49.236Z,3.67
2023-01-13T10:13:20.380Z,3.38
2023-01-13T10:16:00.201Z,2.97
2023-01-13T10:18:57.777Z,3.10
2023-01-13T10:21:48.812Z,4.20
2023-01-13T10:24:35.546Z,3.15
2023-01-13T10:27:13.138Z,2.90
2023-01-13T10:29:39.640Z,3.38
2023-01-13T10:32:06.134Z,3.22
2023-01-13T10:34:52.504Z,5.00
2023-01-13T10:37:24.372Z,3.00
2023-01-13T10:39:55.024Z,3.55
2023-01-13T10:42:24.093Z,3.15
2023-01-13T10:44:58.177Z,4.47
2023-01-13T10:47:32.777Z,2.70
2023-01-13T10:50:11.100Z,2.90
2023-01-13T10:52:43.099Z,3.55
2023-01-13T10:55:57.711Z,3.13
2023-01-13T10:58:25.416Z,3.10
2023-01-13T11:01:01.367Z,3.70
2023-01-13T11:03:36.988Z,4.20
2023-01-13T11:06:03.835Z,2.97
2023-01-13T11:08:42.168Z,2.97
2023-01-13T11:11:43.966Z,3.28
2023-01-13T11:14:37.080Z,2.97
2023-01-13T11:17:10.370Z,3.10
2023-01-13T11:19:42.762Z,3.63
2023-01-13T11:22:23.670Z,2.65
2023-01-13T11:25:04.730Z,3.03
2023-01-13T11:27:43.759Z,4.88
2023-01-13T11:30:30.784Z,3.10
2023-01-13T11:33:15.823Z,3.40
2023-01-13T11:35:47.881Z,3.10
2023-01-13T11:38:27.328Z,4.28
2023-01-13T11:40:56.427Z,3.05
2023-01-13T11:43:51.732Z,3.20
2023-01-13T11:46:19.941Z,3.85
2023-01-13T11:48:46.589Z,4.32
2023-01-13T11:54:10.899Z,3.00
2023-01-13T11:57:04.778Z,3.17
2023-01-13T11:59:40.360Z,3.38
2023-01-13T12:02:46.976Z,4.07
2023-01-13T12:05:40.911Z,3.65
2023-01-13T12:08:41.575Z,3.60
2023-01-13T12:11:18.976Z,2.95
2023-01-13T12:14:10.668Z,3.25
2023-01-13T12:16:47.647Z,2.80
2023-01-13T12:19:29.757Z,3.20
2023-01-13T12:22:09.740Z,3.80
2023-01-13T12:25:14.903Z,3.30
2023-01-13T12:27:52.318Z,3.90
2023-01-13T12:30:32.306Z,3.88
2023-01-13T12:33:09.689Z,3.20
2023-01-13T12:35:41.725Z,3.65
2023-01-13T12:38:21.199Z,3.35
2023-01-13T12:41:03.656Z,3.63
2023-01-13T12:43:50.040Z,2.92
2023-01-13T12:46:19.315Z,3.30
2023-01-13T12:48:51.007Z,3.35
2023-01-13T12:51:56.932Z,3.80
2023-01-13T12:54:42.580Z,2.97
2023-01-13T12:57:26.961Z,3.20
2023-01-13T12:59:59.756Z,3.35
2023-01-13T13:02:32.458Z,4.75
2023-01-13T13:05:14.427Z,3.50
2023-01-13T13:08:09.127Z,3.75
2023-01-13T13:10:40.391Z,3.20
2023-01-13T13:13:20.433Z,3.17
2023-01-13T13:15:49.242Z,3.40
2023-01-13T13:18:20.445Z,3.95
2023-01-13T13:20:58.204Z,4.32
2023-01-13T13:23:35.779Z,3.20
2023-01-13T13:26:14.489Z,3.17
2023-01-13T13:28:54.604Z,3.38
2023-01-13T13:31:41.130Z,3.70
2023-01-13T13:34:32.034Z,3.33
2023-01-13T13:37:22.829Z,3.00
2023-01-13T13:40:09.371Z,4.45
2023-01-13T13:43:01.349Z,4.68
2023-01-13T13:45:47.359Z,3.55
2023-01-13T13:48:25.284Z,3.40
2023-01-13T13:51:01.400Z,3.25
2023-01-13T13:53:33.620Z,4.43
2023-01-13T13:56:02.292Z,2.97
2023-01-13T13:58:31.380Z,3.47
2023-01-13T14:00:59.833Z,2.90
2023-01-13T14:03:32.511Z,4.78
2023-01-13T14:06:02.761Z,3.55
2023-01-13T14:08:33.157Z,3.33
2023-01-13T14:11:00.371Z,4.00
2023-01-13T14:13:32.117Z,3.20
2023-01-13T14:16:14.648Z,3.42
2023-01-13T14:18:45.585Z,2.97
2023-01-13T14:21:27.858Z,3.25
2023-01-13T14:24:01.996Z,3.45
2023-01-13T14:26:31.537Z,3.33
2023-01-13T14:29:01.892Z,6.20
2023-01-13T14:31:29.513Z,3.03
2023-01-13T14:33:58.633Z,3.45
2023-01-13T14:36:35.995Z,4.15
2023-01-13T14:39:05.642Z,2.90
2023-01-13T14:41:36.935Z,2.88
2023-01-13T14:44:42.831Z,2.95
2023-01-13T14:47:29.076Z,4.60
2023-01-13T14:50:19.380Z,3.80
2023-01-13T14:52:54.518Z,3.28
2023-01-13T14:55:34.000Z,2.85
2023-01-13T14:58:22.116Z,2.85
2023-01-13T15:00:50.588Z,3.13
2023-01-13T15:03:19.680Z,2.88
2023-01-13T15:05:49.452Z,3.65
2023-01-13T15:08:17.352Z,3.08
2023-01-13T15:10:54.727Z,2.72
2023-01-13T15:13:26.436Z,2.45
2023-01-13T15:15:56.215Z,3.00
2023-01-13T15:18:22.878Z,3.13
2023-01-13T15:20:51.056Z,3.22
2023-01-13T15:23:19.452Z,3.65
2023-01-13T15:25:47.156Z,3.08
2023-01-13T15:28:24.557Z,2.90
2023-01-13T15:30:53.963Z,3.20
2023-01-13T15:33:22.253Z,3.17
2023-01-13T15:35:52.539Z,3.13
2023-01-13T15:38:21.582Z,3.85
2023-01-13T15:40:51.987Z,3.22
2023-01-13T15:43:41.092Z,3.05
2023-01-13T15:46:35.444Z,3.28
2023-01-13T15:49:09.842Z,3.20
2023-01-13T15:51:37.203Z,2.90
2023-01-13T15:54:03.756Z,3.08
2023-01-13T15:56:30.560Z,2.95
2023-01-13T16:01:24.369Z,3.50
2023-01-13T16:03:52.245Z,3.90
2023-01-13T16:06:23.701Z,3.33
2023-01-13T16:08:50.308Z,3.88
2023-01-13T16:11:17.127Z,3.78
2023-01-13T16:13:43.711Z,3.33
2023-01-13T16:18:46.132Z,3.67
2023-01-13T16:21:14.166Z,3.58
2023-01-13T16:23:41.242Z,3.35
2023-01-13T16:26:17.534Z,2.70
2023-01-13T16:28:44.197Z,3.33
2023-01-13T16:31:32.402Z,3.65
2023-01-13T16:34:03.370Z,2.75
2023-01-13T16:36:33.327Z,3.17
2023-01-13T16:39:01.881Z,3.15
2023-01-13T16:41:28.478Z,2.90
2023-01-13T16:43:55.092Z,2.70
2023-01-13T16:46:30.344Z,2.85
2023-01-13T16:49:01.505Z,2.90
2023-01-13T16:51:28.113Z,2.97
2023-01-13T16:53:54.732Z,3.50
2023-01-13T16:56:25.364Z,2.88
2023-01-13T16:58:54.319Z,3.40
2023-01-13T17:01:32.276Z,3.28
2023-01-13T17:03:59.839Z,3.10
2023-01-13T17:06:38.957Z,2.78
2023-01-13T17:09:08.204Z,3.55
2023-01-13T17:11:34.942Z,3.78
2023-01-13T17:16:45.527Z,3.08
2023-01-13T17:21:40.149Z,3.22
2023-01-13T17:24:07.986Z,3.20
2023-01-13T17:26:49.392Z,4.03
2023-01-13T17:29:22.435Z,3.72
2023-01-13T17:31:52.871Z,4.18
2023-01-13T17:34:21.077Z,3.80
2023-01-13T17:36:48.186Z,3.60
2023-01-13T17:39:20.588Z,3.58
2023-01-13T17:41:47.945Z,3.30
2023-01-13T17:44:16.266Z,3.63
2023-01-13T17:46:43.755Z,3.80
2023-01-13T17:49:14.676Z,3.90
2023-01-13T17:51:41.553Z,3.65
2023-01-13T17:54:12.122Z,3.70
2023-01-13T17:56:42.739Z,4.18
2023-01-13T17:59:11.786Z,4.13
2023-01-13T18:01:39.146Z,4.15
2023-01-13T18:04:06.940Z,4.95
2023-01-13T18:06:33.900Z,5.22
2023-01-13T18:09:00.998Z,4.07
2023-01-13T18:11:27.869Z,3.67
2023-01-13T18:13:57.045Z,3.95
2023-01-13T18:16:25.189Z,3.78
2023-01-13T18:18:53.517Z,4.03
2023-01-13T18:24:33.782Z,4.15
2023-01-13T18:27:19.194Z,3.90
2023-01-13T18:29:46.420Z,3.63
2023-01-13T18:32:13.462Z,3.40
2023-01-13T18:34:40.074Z,3.75
2023-01-13T18:37:08.310Z,3.35
2023-01-13T18:39:37.324Z,3.05
2023-01-13T18:42:23.764Z,4.20
2023-01-13T18:44:50.239Z,4.65
2023-01-13T18:47:16.747Z,3.75
2023-01-13T18:49:43.211Z,4.38
2023-01-13T18:52:10.172Z,3.22
2023-01-13T18:54:36.754Z,3.53
2023-01-13T18:57:03.431Z,3.83
2023-01-13T18:59:31.074Z,3.10
2023-01-13T19:01:58.474Z,3.60
2023-01-13T19:04:25.049Z,3.20
2023-01-13T19:06:51.935Z,3.30
2023-01-13T19:09:24.658Z,3.35
2023-01-13T19:11:52.317Z,3.28
2023-01-13T19:14:35.059Z,3.42
2023-01-13T19:17:02.302Z,3.30
2023-01-13T19:19:29.770Z,3.95
2023-01-13T19:21:56.474Z,3.75
2023-01-13T19:26:49.750Z,3.33
2023-01-13T19:29:16.283Z,3.35
2023-01-13T19:31:42.719Z,3.50
2023-01-13T19:34:09.612Z,3.13
2023-01-13T19:36:36.208Z,3.90
2023-01-13T19:39:02.901Z,4.10
2023-01-13T19:44:32.794Z,3.75
2023-01-13T19:46:59.237Z,5.43
2023-01-13T19:49:25.709Z,3.72
2023-01-13T19:51:52.173Z,4.13
2023-01-13T19:54:18.621Z,3.97
2023-01-13T19:56:45.092Z,3.63
2023-01-13T19:59:13.480Z,3.55
2023-01-13T20:01:41.177Z,4.53
2023-01-13T20:04:14.150Z,4.40
2023-01-13T20:06:41.101Z,3.80
2023-01-13T20:09:07.599Z,4.20
2023-01-13T20:11:34.152Z,3.97
2023-01-13T20:14:01.552Z,4.53
2023-01-13T20:16:29.427Z,4.32
2023-01-13T20:18:56.623Z,3.65
2023-01-13T20:21:23.303Z,4.60
2023-01-13T20:26:18.086Z,4.78
2023-01-13T20:28:44.922Z,4.35
2023-01-13T20:31:13.355Z,4.25
2023-01-13T20:33:40.351Z,4.45
2023-01-13T20:36:07.982Z,4.13
2023-01-13T20:38:37.906Z,3.85
2023-01-13T20:41:24.832Z,4.18
2023-01-13T20:43:54.411Z,4.00
2023-01-13T20:46:22.808Z,4.68
2023-01-13T20:48:49.420Z,3.55
2023-01-13T20:51:16.001Z,3.67
2023-01-13T20:53:42.524Z,4.20
2023-01-13T20:56:09.997Z,3.95
2023-01-13T20:58:39.212Z,4.00
2023-01-13T21:01:05.869Z,4.20
2023-01-13T21:05:58.951Z,3.92
2023-01-13T21:08:25.525Z,5.55
2023-01-13T21:10:52.046Z,3.97
2023-01-13T21:13:37.254Z,3.63
2023-01-13T21:16:04.070Z,4.05
2023-01-13T21:18:49.179Z,3.97
2023-01-13T21:21:16.292Z,4.10
2023-01-13T21:23:46.915Z,3.35
2023-01-13T21:26:15.614Z,3.30
2023-01-13T21:28:44.346Z,3.90
2023-01-13T21:31:10.935Z,3.55
2023-01-13T21:33:40.289Z,3.28
2023-01-13T21:36:07.707Z,3.40
2023-01-13T21:38:34.398Z,3.33
2023-01-13T21:43:53.488Z,3.30
2023-01-13T21:46:40.391Z,4.00
